Time;durP1;ratioP1;P1;durP2;ratioP2;P2;SDS_P1;SDS_P2;PMS_P1;PMS_P2;Temp;Humidity;BMP_temperature;BMP_pressure;BME280_temperature;BME280_humidity;BME280_pressure;Samples;Min_cycle;Max_cycle;Signal;HPM_P1;HPM_P2
2021/07/29 00:01:51;;;;;;;17.13;14.90;;;23.80;93.00;;;;;;6249214;23;20008;-92
2021/07/29 00:04:16;;;;;;;16.63;14.85;;;23.70;93.10;;;;;;6222585;23;20004;-92
2021/07/29 00:06:45;;;;;;;20.35;17.63;;;23.60;93.20;;;;;;6222377;23;20095;-92
2021/07/29 00:09:18;;;;;;;19.30;16.63;;;23.60;93.40;;;;;;6221990;22;20012;-92
2021/07/29 00:11:44;;;;;;;23.23;16.17;;;23.50;93.40;;;;;;6223239;23;20007;-93
2021/07/29 00:14:12;;;;;;;17.23;14.90;;;23.50;93.60;;;;;;6222740;23;20028;-91
2021/07/29 00:16:45;;;;;;;15.77;14.10;;;23.50;93.80;;;;;;6222535;23;20001;-92
2021/07/29 00:19:10;;;;;;;17.17;13.63;;;23.40;93.80;;;;;;6222698;23;20087;-92
2021/07/29 00:21:38;;;;;;;14.07;12.63;;;23.40;93.80;;;;;;6249232;23;20024;-92
2021/07/29 00:24:05;;;;;;;14.25;12.68;;;23.40;93.90;;;;;;6222610;23;20050;-93
2021/07/29 00:26:31;;;;;;;12.80;11.52;;;23.30;93.80;;;;;;6221970;23;20001;-93
2021/07/29 00:29:00;;;;;;;14.20;12.55;;;23.30;93.90;;;;;;6222332;23;20011;-92
2021/07/29 00:31:40;;;;;;;;;;;;;;;;;;;;;
2021/07/29 00:34:06;;;;;;;14.30;11.70;;;23.30;94.00;;;;;;6248740;23;20071;-92
2021/07/29 00:36:32;;;;;;;13.25;11.85;;;23.20;94.00;;;;;;6222795;23;20004;-92
2021/07/29 00:39:07;;;;;;;13.60;12.00;;;23.30;94.10;;;;;;6222336;23;20074;-92
2021/07/29 00:41:36;;;;;;;12.95;11.55;;;23.20;94.10;;;;;;6222627;23;20008;-92
2021/07/29 00:44:07;;;;;;;13.95;12.43;;;23.20;94.10;;;;;;6222184;23;20051;-92
2021/07/29 00:46:33;;;;;;;13.35;12.00;;;23.20;94.20;;;;;;6222343;23;20039;-93
2021/07/29 00:49:04;;;;;;;14.90;12.70;;;23.10;94.20;;;;;;6222033;23;20078;-92
2021/07/29 00:51:30;;;;;;;12.60;11.30;;;23.10;94.20;;;;;;6222067;23;20054;-92
2021/07/29 00:53:58;;;;;;;14.05;12.05;;;23.10;94.30;;;;;;6222068;23;20006;-93
2021/07/29 00:56:32;;;;;;;13.27;11.90;;;23.10;94.40;;;;;;6248766;23;20416;-92
2021/07/29 00:58:57;;;;;;;12.13;10.80;;;23.10;94.40;;;;;;6222292;23;20301;-92
2021/07/29 01:01:23;;;;;;;12.63;11.38;;;23.00;94.40;;;;;;6222796;23;19996;-93
2021/07/29 01:03:49;;;;;;;14.77;12.73;;;23.00;94.50;;;;;;6249335;23;20007;-92
2021/07/29 01:06:17;;;;;;;12.95;11.60;;;23.00;94.70;;;;;;6247288;23;20479;-93
2021/07/29 01:09:00;;;;;;;14.18;12.65;;;23.00;94.70;;;;;;6248756;22;20000;-93
2021/07/29 01:11:25;;;;;;;12.98;11.43;;;23.00;94.80;;;;;;6221758;23;20012;-92
2021/07/29 01:13:51;;;;;;;13.43;11.85;;;23.00;94.80;;;;;;6222046;23;20062;-92
2021/07/29 01:16:17;;;;;;;13.77;12.38;;;22.90;94.80;;;;;;6248910;23;20000;-93
2021/07/29 01:18:45;;;;;;;16.17;13.02;;;22.90;94.90;;;;;;6222292;23;20059;-92
2021/07/29 01:21:11;;;;;;;14.10;12.70;;;22.90;94.90;;;;;;6222174;23;20066;-92
2021/07/29 01:23:37;;;;;;;17.17;12.73;;;22.80;94.90;;;;;;6248829;23;20296;-92
2021/07/29 01:26:02;;;;;;;13.48;12.07;;;22.80;95.00;;;;;;6222067;23;20419;-93
2021/07/29 01:28:38;;;;;;;13.82;12.52;;;22.80;95.10;;;;;;6248504;23;20004;-93
2021/07/29 01:31:06;;;;;;;16.15;12.45;;;22.80;95.20;;;;;;6247729;23;20030;-93
2021/07/29 01:33:32;;;;;;;15.52;12.93;;;22.70;95.30;;;;;;6248218;23;19996;-94
2021/07/29 01:35:58;;;;;;;13.48;12.07;;;22.70;95.40;;;;;;6221849;23;20086;-92
2021/07/29 01:38:24;;;;;;;13.07;11.30;;;22.70;95.40;;;;;;6221678;23;20500;-92
2021/07/29 01:40:51;;;;;;;13.18;11.88;;;22.70;95.50;;;;;;6221772;23;20087;-91
2021/07/29 01:43:17;;;;;;;13.30;12.00;;;22.70;95.80;;;;;;6248477;23;20070;-91
2021/07/29 01:45:44;;;;;;;14.02;12.43;;;22.60;95.60;;;;;;6221749;23;20304;-93
2021/07/29 01:48:10;;;;;;;17.20;12.88;;;22.60;95.70;;;;;;6221942;23;20004;-92
2021/07/29 01:50:35;;;;;;;13.27;11.98;;;22.60;95.80;;;;;;6221359;23;20003;-92
2021/07/29 01:53:01;;;;;;;13.13;11.52;;;22.60;95.80;;;;;;6221379;23;20007;-92
2021/07/29 01:55:27;;;;;;;11.40;10.30;;;22.60;95.80;;;;;;6221456;23;20371;-93
2021/07/29 01:57:53;;;;;;;12.70;11.40;;;22.60;95.80;;;;;;6221875;23;20032;-93
2021/07/29 02:00:19;;;;;;;13.00;11.60;;;22.60;96.10;;;;;;6221632;23;20050;-92
2021/07/29 02:02:44;;;;;;;11.88;10.45;;;22.60;95.90;;;;;;6221519;23;20000;-92
2021/07/29 02:05:10;;;;;;;12.43;11.23;;;22.50;96.00;;;;;;6222283;23;20031;-92
2021/07/29 02:07:38;;;;;;;15.13;10.70;;;22.50;96.00;;;;;;6221026;23;20008;-93
2021/07/29 02:10:11;;;;;;;12.68;11.23;;;22.50;96.00;;;;;;6221619;23;20427;-93
2021/07/29 02:12:39;;;;;;;12.65;11.07;;;22.50;96.00;;;;;;6221407;23;20067;-93
2021/07/29 02:15:08;;;;;;;11.60;10.18;;;22.50;96.00;;;;;;6221588;23;19996;-93
2021/07/29 02:17:34;;;;;;;13.38;12.00;;;22.50;96.10;;;;;;6221211;23;20030;-93
2021/07/29 02:20:00;;;;;;;13.30;11.27;;;22.50;96.10;;;;;;6247793;23;19997;-92
2021/07/29 02:22:28;;;;;;;12.68;11.43;;;22.50;96.20;;;;;;6222181;23;20008;-93
2021/07/29 02:24:56;;;;;;;12.85;11.32;;;22.50;96.50;;;;;;6220767;23;20078;-93
2021/07/29 02:27:23;;;;;;;11.55;9.98;;;22.40;96.20;;;;;;6247885;23;20426;-92
2021/07/29 02:29:53;;;;;;;12.70;11.50;;;22.40;96.20;;;;;;6221222;23;20046;-92
2021/07/29 02:32:22;;;;;;;14.45;10.95;;;22.40;96.30;;;;;;6221334;23;20007;-92
2021/07/29 02:34:47;;;;;;;14.52;12.68;;;22.40;96.40;;;;;;6247840;23;19996;-93
2021/07/29 02:37:13;;;;;;;16.58;12.02;;;22.40;96.50;;;;;;6221263;23;20004;-93
2021/07/29 02:39:41;;;;;;;13.65;12.15;;;22.40;96.70;;;;;;6221260;23;20004;-93
2021/07/29 02:42:08;;;;;;;13.25;11.43;;;22.40;96.50;;;;;;6221099;23;20026;-93
2021/07/29 02:44:37;;;;;;;13.65;12.25;;;22.40;96.50;;;;;;6221153;23;20000;-92
2021/07/29 02:47:05;;;;;;;13.55;11.32;;;22.40;96.50;;;;;;6221175;23;20062;-92
2021/07/29 02:49:31;;;;;;;14.20;12.27;;;22.40;96.50;;;;;;6221146;23;20011;-93
2021/07/29 02:51:57;;;;;;;14.50;12.68;;;22.40;96.50;;;;;;6221359;23;20087;-93
2021/07/29 02:54:23;;;;;;;12.93;11.40;;;22.40;96.50;;;;;;6221446;23;20004;-93
2021/07/29 02:56:52;;;;;;;12.60;11.10;;;22.50;96.60;;;;;;6221053;23;20004;-93
2021/07/29 02:59:21;;;;;;;13.23;11.75;;;22.50;96.60;;;;;;6220880;23;20004;-92
2021/07/29 03:01:47;;;;;;;12.70;11.05;;;22.50;96.60;;;;;;6220938;23;20028;-92
2021/07/29 03:04:13;;;;;;;20.40;12.13;;;22.50;96.50;;;;;;6248020;23;20008;-92
2021/07/29 03:06:39;;;;;;;13.32;11.93;;;22.60;96.60;;;;;;6221421;23;20011;-93
2021/07/29 03:09:10;;;;;;;14.55;12.40;;;22.60;96.60;;;;;;6247639;22;20011;-93
2021/07/29 03:11:38;;;;;;;14.55;13.15;;;22.60;96.60;;;;;;6220898;23;20019;-92
2021/07/29 03:14:04;;;;;;;12.82;11.68;;;22.70;96.50;;;;;;6221115;23;20478;-92
2021/07/29 03:16:32;;;;;;;13.07;11.13;;;22.60;96.50;;;;;;6221277;23;20047;-92
2021/07/29 03:18:58;;;;;;;16.98;14.30;;;22.70;96.50;;;;;;6221465;23;20000;-92
2021/07/29 03:21:26;;;;;;;13.02;11.73;;;22.70;96.50;;;;;;6221001;23;20004;-92
2021/07/29 03:23:54;;;;;;;14.27;12.27;;;22.80;96.40;;;;;;6220928;23;20027;-93
2021/07/29 03:26:20;;;;;;;15.77;12.50;;;22.80;96.60;;;;;;6220954;23;20015;-93
2021/07/29 03:28:45;;;;;;;15.25;12.65;;;22.90;96.30;;;;;;6220926;23;20420;-93
2021/07/29 03:31:11;;;;;;;14.73;13.10;;;22.90;96.20;;;;;;6220777;23;20058;-93
2021/07/29 03:33:38;;;;;;;13.75;12.35;;;23.00;96.20;;;;;;6220786;23;20011;-93
2021/07/29 03:36:04;;;;;;;12.70;11.40;;;23.00;96.10;;;;;;6222429;23;20034;-93
2021/07/29 03:38:35;;;;;;;14.52;11.38;;;23.10;96.00;;;;;;6222942;23;20000;-92
2021/07/29 03:41:01;;;;;;;13.73;11.32;;;23.20;95.80;;;;;;6223056;23;20454;-93
2021/07/29 03:43:26;;;;;;;13.38;11.50;;;23.30;95.70;;;;;;6222685;23;20000;-93
2021/07/29 03:45:52;;;;;;;13.57;10.90;;;23.40;95.50;;;;;;6223501;23;20007;-93
2021/07/29 03:48:18;;;;;;;13.23;11.07;;;23.40;95.30;;;;;;6227708;23;20011;-92
2021/07/29 03:50:44;;;;;;;14.55;11.75;;;23.60;95.20;;;;;;6229833;23;20005;-92
2021/07/29 03:53:10;;;;;;;12.00;10.02;;;23.60;95.00;;;;;;6227744;23;20022;-93
2021/07/29 03:55:38;;;;;;;11.52;9.93;;;23.70;94.80;;;;;;6226489;23;20366;-92
2021/07/29 03:58:03;;;;;;;12.48;10.73;;;23.80;94.60;;;;;;6228056;23;20000;-92
2021/07/29 04:00:29;;;;;;;12.95;11.63;;;23.90;94.40;;;;;;6250474;23;20000;-93
2021/07/29 04:02:55;;;;;;;13.38;11.23;;;24.00;94.20;;;;;;6223332;23;20138;-92
2021/07/29 04:05:26;;;;;;;13.32;11.13;;;24.10;94.10;;;;;;6223911;23;20004;-93
2021/07/29 04:07:54;;;;;;;12.48;10.50;;;24.20;93.80;;;;;;6222448;23;20018;-92
2021/07/29 04:10:22;;;;;;;11.88;10.50;;;24.30;93.90;;;;;;6233509;22;20047;-92
2021/07/29 04:12:50;;;;;;;11.57;10.38;;;24.40;93.50;;;;;;6252886;22;20050;-93
2021/07/29 04:15:16;;;;;;;14.85;10.10;;;24.50;93.30;;;;;;6252623;22;20000;-92
2021/07/29 04:17:42;;;;;;;12.88;10.40;;;24.60;93.10;;;;;;6279922;22;20011;-93
2021/07/29 04:20:11;;;;;;;11.25;10.10;;;24.70;92.90;;;;;;6252763;22;20042;-93
2021/07/29 04:22:37;;;;;;;11.38;9.90;;;24.80;92.70;;;;;;6252793;22;19996;-92
2021/07/29 04:25:05;;;;;;;12.80;10.80;;;24.90;92.60;;;;;;6279541;22;20011;-93
2021/07/29 04:27:31;;;;;;;11.75;10.30;;;25.00;92.30;;;;;;6252782;22;20050;-93
2021/07/29 04:29:59;;;;;;;10.82;9.82;;;25.10;92.20;;;;;;6253373;22;19999;-92
2021/07/29 04:32:25;;;;;;;15.43;13.10;;;25.20;92.00;;;;;;6252869;22;20004;-91
2021/07/29 04:34:51;;;;;;;13.88;10.55;;;25.40;91.70;;;;;;6278710;22;20034;-93
2021/07/29 04:37:19;;;;;;;13.23;10.40;;;25.50;91.40;;;;;;6279532;22;19996;-92
2021/07/29 04:39:44;;;;;;;13.88;9.85;;;25.60;91.20;;;;;;6252608;22;20026;-93
2021/07/29 04:42:13;;;;;;;15.18;10.23;;;25.70;90.90;;;;;;6252764;22;20486;-93
2021/07/29 04:44:39;;;;;;;13.95;10.60;;;25.80;90.60;;;;;;6252917;22;19996;-92
2021/07/29 04:47:05;;;;;;;13.00;9.93;;;25.90;90.30;;;;;;6251611;22;20071;-92
2021/07/29 04:49:31;;;;;;;14.13;9.70;;;26.00;90.00;;;;;;6252410;22;20362;-93
2021/07/29 04:51:57;;;;;;;12.35;11.02;;;26.10;89.70;;;;;;6252754;22;20118;-93
2021/07/29 04:54:23;;;;;;;11.23;10.13;;;26.20;88.60;;;;;;6252395;22;20004;-93
2021/07/29 04:56:48;;;;;;;9.80;8.80;;;26.20;87.90;;;;;;6252392;22;20050;-93
2021/07/29 04:59:14;;;;;;;9.95;9.02;;;26.30;87.30;;;;;;6252549;22;20007;-93
2021/07/29 05:01:42;;;;;;;10.88;9.48;;;26.30;86.90;;;;;;6252119;22;20034;-93
2021/07/29 05:04:10;;;;;;;10.73;8.38;;;26.40;86.30;;;;;;6252340;22;20427;-92
2021/07/29 05:06:39;;;;;;;10.40;9.40;;;26.50;86.20;;;;;;6252086;22;20010;-92
2021/07/29 05:09:05;;;;;;;10.55;9.38;;;26.50;85.70;;;;;;6279812;22;20003;-92
2021/07/29 05:11:33;;;;;;;13.30;9.43;;;26.70;85.10;;;;;;6252258;22;20019;-93
2021/07/29 05:14:04;;;;;;;10.77;9.68;;;26.80;84.80;;;;;;6252433;22;20006;-93
2021/07/29 05:16:32;;;;;;;10.30;9.25;;;26.80;84.30;;;;;;6278745;22;20050;-92
2021/07/29 05:18:57;;;;;;;14.75;9.00;;;26.90;84.10;;;;;;6252602;22;20018;-92
2021/07/29 05:21:23;;;;;;;10.13;8.98;;;27.00;84.00;;;;;;6279185;22;20003;-92
2021/07/29 05:23:49;;;;;;;10.30;9.30;;;27.10;83.60;;;;;;6252471;22;19999;-93
2021/07/29 05:26:21;;;;;;;10.35;9.32;;;27.20;83.20;;;;;;6252067;22;20085;-93
2021/07/29 05:28:49;;;;;;;10.43;8.85;;;27.30;82.70;;;;;;6252282;22;20010;-92
2021/07/29 05:31:15;;;;;;;9.68;8.48;;;27.40;82.30;;;;;;6252315;22;20000;-92
2021/07/29 05:33:46;;;;;;;10.20;8.63;;;27.50;82.00;;;;;;6251951;22;20403;-92
2021/07/29 05:36:11;;;;;;;11.75;9.88;;;27.70;81.60;;;;;;6278812;22;19999;-93
2021/07/29 05:38:37;;;;;;;12.70;10.60;;;27.70;80.90;;;;;;6252206;22;20442;-92
2021/07/29 05:41:06;;;;;;;11.18;9.73;;;27.80;80.60;;;;;;6277660;22;20073;-91
2021/07/29 05:43:35;;;;;;;10.27;9.27;;;27.90;80.30;;;;;;6278756;22;20063;-93
2021/07/29 05:46:01;;;;;;;9.90;8.85;;;28.00;79.90;;;;;;6251370;22;20026;-91
2021/07/29 05:48:29;;;;;;;9.30;8.40;;;28.10;79.50;;;;;;6250997;22;20366;-93
2021/07/29 05:50:56;;;;;;;10.77;9.65;;;28.20;78.90;;;;;;6250644;22;20368;-91
2021/07/29 05:53:23;;;;;;;13.15;10.43;;;28.40;78.30;;;;;;6251234;22;20500;-92
2021/07/29 05:55:51;;;;;;;13.00;9.65;;;28.50;77.60;;;;;;6251600;22;20083;-92
2021/07/29 05:58:19;;;;;;;12.00;10.05;;;28.60;77.10;;;;;;6251364;22;20000;-92
2021/07/29 06:00:45;;;;;;;12.40;10.00;;;28.70;76.70;;;;;;6251378;22;20378;-92
2021/07/29 06:03:11;;;;;;;11.88;9.13;;;28.80;76.60;;;;;;6251041;22;20015;-92
2021/07/29 06:05:38;;;;;;;9.88;8.80;;;28.90;75.90;;;;;;6250859;22;20063;-93
2021/07/29 06:08:04;;;;;;;10.65;8.93;;;29.10;75.20;;;;;;6250801;22;20106;-91
2021/07/29 06:10:33;;;;;;;9.77;8.30;;;29.20;74.90;;;;;;6249650;22;20015;-92
2021/07/29 06:12:59;;;;;;;9.65;8.35;;;29.40;74.70;;;;;;6251625;22;19996;-92
2021/07/29 06:15:25;;;;;;;13.75;8.02;;;29.50;74.00;;;;;;6251155;22;19996;-92
2021/07/29 06:17:59;;;;;;;9.00;8.07;;;29.60;73.40;;;;;;6251565;22;20061;-92
2021/07/29 06:20:25;;;;;;;9.88;8.20;;;29.70;73.00;;;;;;6251240;22;20007;-91
2021/07/29 06:22:51;;;;;;;13.07;8.82;;;29.90;72.60;;;;;;6250735;22;20003;-92
2021/07/29 06:25:19;;;;;;;10.10;8.77;;;30.00;72.20;;;;;;6251929;22;19999;-92
2021/07/29 06:27:49;;;;;;;10.50;8.95;;;30.10;71.60;;;;;;6251056;22;20000;-92
2021/07/29 06:30:16;;;;;;;13.38;9.57;;;30.20;71.30;;;;;;6251106;22;20003;-92
2021/07/29 06:32:42;;;;;;;11.82;10.57;;;30.30;71.30;;;;;;6251759;22;20415;-92
2021/07/29 06:35:09;;;;;;;11.32;9.63;;;30.40;71.30;;;;;;6276605;22;19999;-92
2021/07/29 06:37:36;;;;;;;10.85;9.75;;;30.40;71.30;;;;;;6250829;22;20083;-92
2021/07/29 06:40:03;;;;;;;12.65;11.05;;;30.40;70.90;;;;;;6250839;22;20056;-92
2021/07/29 06:42:28;;;;;;;18.35;10.25;;;30.50;71.00;;;;;;6250062;22;20431;-91
2021/07/29 06:44:56;;;;;;;10.75;9.75;;;30.50;70.90;;;;;;6250652;22;20031;-92
2021/07/29 06:47:23;;;;;;;11.35;9.80;;;30.60;70.70;;;;;;6250696;22;20498;-92
2021/07/29 06:49:50;;;;;;;14.00;10.77;;;30.70;70.40;;;;;;6250795;22;20000;-92
2021/07/29 06:52:16;;;;;;;12.38;9.75;;;30.70;70.00;;;;;;6250723;22;19999;-91
2021/07/29 06:54:42;;;;;;;16.88;12.63;;;30.80;69.70;;;;;;6252265;22;20007;-90
2021/07/29 06:57:09;;;;;;;17.45;13.57;;;30.90;69.60;;;;;;6261821;22;19996;-89
2021/07/29 06:59:35;;;;;;;12.52;11.32;;;30.90;69.60;;;;;;6261387;22;20324;-90
2021/07/29 07:02:01;;;;;;;16.23;12.98;;;30.90;69.50;;;;;;6253980;22;20415;-91
2021/07/29 07:04:29;;;;;;;16.88;13.82;;;30.90;69.50;;;;;;6251500;22;20003;-91
2021/07/29 07:06:55;;;;;;;16.73;15.02;;;31.00;69.20;;;;;;6250574;22;20004;-92
2021/07/29 07:09:20;;;;;;;14.23;12.73;;;31.00;69.10;;;;;;6276655;22;20078;-90
2021/07/29 07:11:46;;;;;;;17.83;15.95;;;31.00;69.10;;;;;;6250271;22;20019;-90
2021/07/29 07:14:12;;;;;;;16.58;14.05;;;31.10;69.10;;;;;;6250405;22;19999;-91
2021/07/29 07:16:38;;;;;;;15.20;13.70;;;31.20;69.10;;;;;;6277747;22;20075;-91
2021/07/29 07:19:07;;;;;;;18.30;14.10;;;31.20;68.90;;;;;;6276048;22;20299;-91
2021/07/29 07:21:34;;;;;;;14.88;13.45;;;31.20;68.80;;;;;;6250573;22;20011;-91
2021/07/29 07:23:59;;;;;;;18.77;15.63;;;31.20;68.90;;;;;;6250138;22;19996;-91
2021/07/29 07:26:27;;;;;;;17.33;15.45;;;31.30;69.00;;;;;;6250152;22;20014;-90
2021/07/29 07:28:55;;;;;;;19.92;14.95;;;31.30;68.70;;;;;;6276952;22;20004;-90
2021/07/29 07:31:21;;;;;;;17.02;15.23;;;31.40;68.80;;;;;;6250216;22;20423;-90
2021/07/29 07:33:47;;;;;;;14.85;12.75;;;31.40;68.70;;;;;;6277336;22;19996;-89
2021/07/29 07:36:17;;;;;;;11.55;10.32;;;31.50;68.00;;;;;;6277359;22;20075;-90
2021/07/29 07:38:42;;;;;;;13.68;10.77;;;31.60;67.10;;;;;;6275529;22;20079;-91
2021/07/29 07:41:09;;;;;;;11.02;9.93;;;31.60;66.00;;;;;;6277440;22;20253;-91
2021/07/29 07:43:39;;;;;;;13.63;11.70;;;31.60;66.10;;;;;;6251327;22;19996;-92
2021/07/29 07:46:05;;;;;;;11.85;10.65;;;31.60;65.70;;;;;;6252345;22;20063;-93
2021/07/29 07:48:31;;;;;;;11.82;10.40;;;31.50;65.90;;;;;;6281842;22;20011;-92
2021/07/29 07:50:57;;;;;;;11.70;9.70;;;31.50;66.00;;;;;;6280502;22;19996;-92
2021/07/29 07:53:27;;;;;;;12.02;10.32;;;31.50;66.20;;;;;;6253714;22;20061;-94
2021/07/29 07:55:56;;;;;;;12.57;10.20;;;31.60;66.10;;;;;;6250811;22;20077;-94
2021/07/29 07:58:22;;;;;;;12.15;10.05;;;31.70;65.60;;;;;;6251244;22;20025;-93
2021/07/29 08:00:51;;;;;;;11.82;10.63;;;31.70;65.70;;;;;;6252620;22;20011;-94
2021/07/29 08:03:23;;;;;;;10.68;9.57;;;31.80;64.90;;;;;;6254089;22;20003;-94
2021/07/29 08:05:51;;;;;;;10.57;9.50;;;31.80;64.30;;;;;;6251401;22;20011;-92
2021/07/29 08:08:17;;;;;;;9.70;8.70;;;31.90;64.60;;;;;;6251806;22;20003;-91
2021/07/29 08:11:02;;;;;;;12.27;9.50;;;31.90;64.50;;;;;;6254613;22;20058;-93
2021/07/29 08:13:30;;;;;;;14.80;9.32;;;32.00;64.10;;;;;;6278109;22;20427;-92
2021/07/29 08:15:59;;;;;;;11.55;8.80;;;32.10;63.50;;;;;;6250471;22;19999;-94
2021/07/29 08:18:27;;;;;;;11.23;9.25;;;32.20;63.20;;;;;;6253145;22;20003;-93
2021/07/29 08:20:59;;;;;;;13.63;11.30;;;32.30;63.30;;;;;;6227968;22;19996;-93
2021/07/29 08:23:25;;;;;;;13.67;11.00;;;32.30;62.90;;;;;;6281600;22;20000;-92
2021/07/29 08:25:53;;;;;;;14.68;10.85;;;32.20;61.90;;;;;;6255094;22;20061;-91
2021/07/29 08:28:21;;;;;;;11.13;9.52;;;32.20;62.20;;;;;;6254728;22;20003;-94
2021/07/29 08:30:56;;;;;;;13.13;9.95;;;32.10;61.80;;;;;;6253721;22;20553;-91
2021/07/29 08:33:24;;;;;;;12.20;10.45;;;32.10;61.90;;;;;;6253459;22;20006;-93
2021/07/29 08:36:13;;;;;;;11.52;8.27;;;32.00;62.00;;;;;;6253289;22;19999;-92
2021/07/29 08:38:39;;;;;;;9.80;8.70;;;31.90;62.20;;;;;;6252780;22;20466;-92
2021/07/29 08:41:09;;;;;;;11.05;9.20;;;32.10;62.30;;;;;;6254301;22;20007;-91
2021/07/29 08:43:35;;;;;;;9.13;7.82;;;32.20;60.90;;;;;;6253790;22;20427;-91
2021/07/29 08:46:07;;;;;;;8.70;7.38;;;32.20;60.60;;;;;;6254481;22;20415;-92
2021/07/29 08:49:12;;;;;;;10.90;7.95;;;32.20;60.30;;;;;;6252566;22;20023;-90
2021/07/29 08:51:49;;;;;;;12.00;8.30;;;32.40;58.20;;;;;;6252440;22;20053;-92
2021/07/29 08:54:15;;;;;;;9.38;7.53;;;32.40;59.20;;;;;;6254752;22;20058;-92
2021/07/29 08:56:41;;;;;;;8.48;7.55;;;32.50;59.30;;;;;;6254363;22;20003;-93
2021/07/29 08:59:07;;;;;;;9.82;7.53;;;32.50;58.40;;;;;;6252460;22;20003;-92
2021/07/29 09:01:50;;;;;;;;;;;;;;;;;;;;;
2021/07/29 09:04:42;;;;;;;7.30;5.60;;;32.70;57.20;;;;;;6279955;22;20077;-93
2021/07/29 09:07:08;;;;;;;7.32;6.30;;;32.80;56.60;;;;;;6252521;22;20050;-92
2021/07/29 09:10:03;;;;;;;6.88;6.20;;;33.00;56.70;;;;;;6251870;22;20435;-92
2021/07/29 09:12:37;;;;;;;9.98;6.35;;;33.30;56.50;;;;;;6221850;23;20019;-92
2021/07/29 09:15:18;;;;;;;10.55;6.70;;;33.50;55.60;;;;;;6223525;23;20023;-91
2021/07/29 09:17:47;;;;;;;7.40;6.53;;;33.60;54.70;;;;;;6223113;23;20079;-94
2021/07/29 09:20:24;;;;;;;8.75;6.13;;;33.70;54.30;;;;;;6222588;23;19996;-93
2021/07/29 09:22:53;;;;;;;9.93;7.10;;;33.70;53.00;;;;;;6221462;23;20435;-90
2021/07/29 09:25:26;;;;;;;8.15;7.20;;;33.60;52.60;;;;;;6222869;23;20273;-91
2021/07/29 09:28:02;;;;;;;8.65;6.90;;;33.40;52.20;;;;;;6251586;22;20042;-92
2021/07/29 09:30:31;;;;;;;;;;;33.30;52.30;;;;;;6249794;23;20001;-92
2021/07/29 09:33:13;;;;;;;8.10;6.65;;;33.10;52.30;;;;;;6221410;23;19906;-92
2021/07/29 09:35:42;;;;;;;8.32;7.45;;;33.20;52.60;;;;;;6222625;23;20049;-92
2021/07/29 09:38:26;;;;;;;8.20;7.25;;;33.20;53.00;;;;;;6249172;23;20416;-92
2021/07/29 09:41:00;;;;;;;10.18;6.55;;;33.20;51.60;;;;;;6220470;23;19997;-92
2021/07/29 09:43:32;;;;;;;10.00;7.22;;;33.20;52.30;;;;;;6221507;23;19996;-93
2021/07/29 09:45:59;;;;;;;;;;;33.20;51.40;;;;;;6221049;23;20008;-92
2021/07/29 09:48:25;;;;;;;7.22;5.93;;;33.20;50.80;;;;;;6221209;23;19903;-93
2021/07/29 09:51:00;;;;;;;8.40;7.10;;;33.20;51.70;;;;;;6220639;23;20004;-91
2021/07/29 09:53:46;;;;;;;9.27;6.03;;;33.20;51.50;;;;;;6220856;23;20038;-92
2021/07/29 09:56:14;;;;;;;8.00;7.20;;;33.20;51.30;;;;;;6222277;23;20043;-90
2021/07/29 09:58:43;;;;;;;10.07;7.35;;;33.20;51.40;;;;;;6222881;23;19996;-93
2021/07/29 10:01:14;;;;;;;9.98;8.07;;;33.20;51.80;;;;;;6222192;23;20050;-93
2021/07/29 10:03:54;;;;;;;9.05;7.85;;;33.10;51.90;;;;;;6222873;23;19996;-92
2021/07/29 10:06:24;;;;;;;9.30;7.00;;;33.10;52.00;;;;;;6222017;23;20000;-93
2021/07/29 10:09:10;;;;;;;7.93;6.18;;;33.00;52.30;;;;;;6221559;23;20000;-93
2021/07/29 10:11:38;;;;;;;8.35;6.53;;;33.10;52.00;;;;;;6221028;23;20012;-96
2021/07/29 10:14:05;;;;;;;7.63;5.97;;;33.20;52.60;;;;;;6221137;23;20142;-92
2021/07/29 10:16:43;;;;;;;6.60;6.00;;;33.30;52.60;;;;;;6247617;23;20008;-93
2021/07/29 10:19:13;;;;;;;7.65;6.82;;;33.50;52.40;;;;;;6222297;23;20344;-92
2021/07/29 10:21:41;;;;;;;9.60;6.65;;;33.50;52.40;;;;;;6223096;23;20008;-92
2021/07/29 10:24:08;;;;;;;11.27;6.40;;;33.40;51.80;;;;;;6222194;23;20065;-92
2021/07/29 10:29:44;;;;;;;6.18;5.55;;;33.40;50.60;;;;;;6239203;23;20034;-91
2021/07/29 10:32:15;;;;;;;6.75;5.47;;;33.40;50.90;;;;;;6233688;23;20004;-92
2021/07/29 10:34:46;;;;;;;7.22;5.70;;;33.30;50.20;;;;;;6222144;23;20456;-93
2021/07/29 10:37:14;;;;;;;8.10;5.57;;;33.20;49.90;;;;;;6222704;23;20050;-93
2021/07/29 10:40:00;;;;;;;7.40;5.47;;;33.10;50.20;;;;;;6221056;23;20032;-93
2021/07/29 10:42:30;;;;;;;8.38;4.88;;;33.00;50.10;;;;;;6222719;23;20004;-92
2021/07/29 10:45:02;;;;;;;5.78;4.72;;;33.00;49.40;;;;;;6248605;23;19992;-93
2021/07/29 10:47:59;;;;;;;6.93;5.03;;;33.00;49.30;;;;;;6220912;23;20015;-94
2021/07/29 10:51:08;;;;;;;5.57;4.60;;;33.00;47.00;;;;;;6247585;23;20255;-94
2021/07/29 10:53:36;;;;;;;6.00;4.15;;;32.80;48.10;;;;;;6246577;23;20454;-92
2021/07/29 10:56:05;;;;;;;5.35;3.85;;;32.80;48.70;;;;;;6247719;23;19992;-93
2021/07/29 10:59:25;;;;;;;5.28;4.25;;;32.90;48.20;;;;;;6221625;23;20091;-94
2021/07/29 11:01:59;;;;;;;8.15;4.90;;;33.00;46.90;;;;;;6219029;23;20091;-94
2021/07/29 11:04:31;;;;;;;6.55;4.10;;;32.90;47.90;;;;;;6223064;23;20024;-93
2021/07/29 11:07:20;;;;;;;3.70;3.20;;;33.00;47.70;;;;;;6222157;23;20031;-94
2021/07/29 11:10:05;;;;;;;7.15;4.75;;;33.00;48.10;;;;;;6247793;22;20221;-92
2021/07/29 11:12:34;;;;;;;4.45;4.05;;;33.00;47.50;;;;;;6222181;23;20009;-94
2021/07/29 11:15:06;;;;;;;8.52;5.05;;;33.00;47.00;;;;;;6221658;23;20004;-93
2021/07/29 11:17:43;;;;;;;4.47;4.07;;;33.10;46.90;;;;;;6231025;23;20004;-93
2021/07/29 11:20:14;;;;;;;5.00;3.53;;;33.00;46.70;;;;;;6228082;23;19997;-91
2021/07/29 11:22:55;;;;;;;8.85;4.45;;;33.00;45.80;;;;;;6252883;23;19996;-91
2021/07/29 11:25:24;;;;;;;7.05;4.10;;;32.80;44.50;;;;;;6223515;23;20010;-92
2021/07/29 11:28:09;;;;;;;6.93;3.40;;;32.80;45.60;;;;;;6225184;23;20006;-92
2021/07/29 11:30:44;;;;;;;4.45;3.97;;;32.80;45.70;;;;;;6223440;23;20014;-93
2021/07/29 11:33:46;;;;;;;6.28;4.10;;;32.90;45.70;;;;;;6222342;23;20095;-91
2021/07/29 11:36:12;;;;;;;4.85;3.85;;;32.90;45.30;;;;;;6214732;23;20030;-93
2021/07/29 11:38:39;;;;;;;3.95;3.45;;;32.90;46.00;;;;;;6221661;23;20386;-92
2021/07/29 11:41:08;;;;;;;8.18;3.90;;;32.90;46.30;;;;;;6221328;23;20009;-91
2021/07/29 11:43:59;;;;;;;5.38;3.90;;;33.00;46.50;;;;;;6220298;23;20427;-90
2021/07/29 11:46:25;;;;;;;5.65;3.78;;;33.00;46.20;;;;;;6249318;23;20004;-92
2021/07/29 11:49:04;;;;;;;6.05;3.83;;;33.10;46.00;;;;;;6219190;23;20039;-92
2021/07/29 11:51:33;;;;;;;4.47;3.30;;;33.20;45.20;;;;;;6220233;23;20023;-91
2021/07/29 11:54:01;;;;;;;7.28;4.22;;;33.20;45.90;;;;;;6221339;23;20007;-92
2021/07/29 11:56:39;;;;;;;5.10;3.78;;;33.40;46.20;;;;;;6221195;23;20032;-93
2021/07/29 11:59:12;;;;;;;5.15;3.90;;;33.40;46.30;;;;;;6222423;23;20050;-92
2021/07/29 12:01:50;;;;;;;5.10;3.85;;;33.50;46.40;;;;;;6224501;23;20000;-91
2021/07/29 12:04:17;;;;;;;3.72;3.25;;;33.50;46.50;;;;;;6228075;23;20034;-91
2021/07/29 12:06:44;;;;;;;7.80;4.95;;;33.50;45.90;;;;;;6232795;23;20004;-91
2021/07/29 12:09:13;;;;;;;6.45;4.32;;;33.60;46.20;;;;;;6232157;23;20016;-91
2021/07/29 12:11:42;;;;;;;5.00;3.60;;;33.60;46.30;;;;;;6224753;23;20043;-90
2021/07/29 12:14:25;;;;;;;;;;;;;;;;;;;;;
2021/07/29 12:17:04;;;;;;;3.92;3.47;;;33.80;46.00;;;;;;6250028;23;20090;-92
2021/07/29 12:20:02;;;;;;;5.43;3.88;;;34.00;45.90;;;;;;6222228;23;20006;-91
2021/07/29 12:22:31;;;;;;;6.05;3.95;;;34.30;44.90;;;;;;6221544;23;20360;-91
2021/07/29 12:25:29;;;;;;;5.40;4.03;;;34.50;45.50;;;;;;6222982;23;20004;-92
2021/07/29 12:27:58;;;;;;;5.15;4.10;;;34.70;44.00;;;;;;6222707;23;20004;-91
2021/07/29 12:30:35;;;;;;;4.82;3.80;;;34.90;45.00;;;;;;6221849;23;20075;-91
2021/07/29 12:33:10;;;;;;;6.35;4.03;;;35.10;44.70;;;;;;6224228;23;20000;-91
2021/07/29 12:35:41;;;;;;;4.07;3.60;;;35.50;45.40;;;;;;6223320;23;20050;-92
2021/07/29 12:38:10;;;;;;;5.50;4.13;;;35.90;45.40;;;;;;6223206;23;20000;-91
2021/07/29 12:40:38;;;;;;;5.63;3.85;;;36.40;45.30;;;;;;6222300;23;20035;-92
2021/07/29 12:43:23;;;;;;;5.82;3.75;;;36.80;45.20;;;;;;6247896;23;20008;-92
2021/07/29 12:45:55;;;;;;;4.82;3.08;;;37.30;44.30;;;;;;6222186;23;20000;-92
2021/07/29 12:48:22;;;;;;;5.35;4.05;;;37.70;43.10;;;;;;6221540;23;20004;-92
2021/07/29 12:50:48;;;;;;;5.97;4.07;;;37.90;43.40;;;;;;6221522;23;20035;-92
2021/07/29 12:53:24;;;;;;;4.05;3.30;;;38.10;43.00;;;;;;6222135;23;20095;-92
2021/07/29 12:55:55;;;;;;;5.43;3.78;;;38.40;43.20;;;;;;6222393;23;20008;-91